Time;durP1;ratioP1;P1;durP2;ratioP2;P2;SDS_P1;SDS_P2;PMS_P1;PMS_P2;Temp;Humidity;BMP_temperature;BMP_pressure;BME280_temperature;BME280_humidity;BME280_pressure;Samples;Min_cycle;Max_cycle;Signal;HPM_P1;HPM_P2
2021/12/27 00:01:38;;;;;;;10.60;7.00;;;5.20;99.90;;;3.79;100.00;99242.25;5009548;28;20121;-83
2021/12/27 00:04:06;;;;;;;11.75;7.45;;;5.20;99.90;;;3.83;100.00;99237.34;5009317;28;20050;-83
2021/12/27 00:06:33;;;;;;;10.82;6.63;;;5.20;99.90;;;3.87;100.00;99239.50;5009361;28;20057;-83
2021/12/27 00:09:00;;;;;;;11.93;6.70;;;5.30;99.90;;;3.91;100.00;99240.00;5009834;28;20053;-83
2021/12/27 00:11:28;;;;;;;11.10;6.93;;;5.30;99.90;;;3.92;100.00;99231.78;4991128;28;20042;-83
2021/12/27 00:13:55;;;;;;;11.57;7.43;;;5.40;99.90;;;3.95;100.00;99235.13;5009895;28;20132;-83
2021/12/27 00:18:54;;;;;;;10.23;6.43;;;5.40;99.90;;;3.88;100.00;99214.28;4940342;29;20055;-91
2021/12/27 00:21:22;;;;;;;10.70;6.53;;;5.40;99.90;;;3.96;100.00;99231.41;4941581;28;20036;-92
2021/12/27 00:23:52;;;;;;;9.73;6.63;;;5.40;99.90;;;3.91;100.00;99218.47;4941674;28;20074;-89
2021/12/27 00:26:19;;;;;;;11.63;6.68;;;5.40;99.90;;;3.92;100.00;99221.00;4940241;28;20055;-90
2021/12/27 00:28:47;;;;;;;12.55;6.97;;;5.40;99.90;;;3.92;100.00;99215.63;4941799;29;20044;-90
2021/12/27 00:31:19;;;;;;;11.27;6.75;;;5.40;99.90;;;3.92;100.00;99212.94;4949098;28;20098;-91
2021/12/27 00:33:50;;;;;;;11.70;6.65;;;5.40;99.90;;;3.96;100.00;99213.41;4942859;28;20493;-92
2021/12/27 00:36:19;;;;;;;11.93;6.90;;;5.50;99.90;;;4.06;100.00;99226.66;4941495;29;20054;-90
2021/12/27 00:38:47;;;;;;;12.27;6.68;;;5.50;99.90;;;4.05;100.00;99216.91;4924187;29;20055;-90
2021/12/27 00:41:14;;;;;;;10.70;6.63;;;5.50;99.90;;;4.04;100.00;99212.56;4942647;28;20043;-89
2021/12/27 00:43:41;;;;;;;10.00;6.30;;;5.50;99.90;;;4.11;100.00;99208.13;4924316;29;20059;-90
2021/12/27 00:46:13;;;;;;;10.45;6.32;;;5.60;99.90;;;4.08;100.00;99197.72;4941747;28;20071;-89
2021/12/27 00:48:40;;;;;;;10.82;6.00;;;5.60;99.90;;;4.11;100.00;99200.91;4924697;29;20705;-90
2021/12/27 00:51:08;;;;;;;10.18;6.30;;;5.60;99.90;;;4.11;100.00;99197.34;4940932;29;20095;-91
2021/12/27 00:53:37;;;;;;;10.57;6.53;;;5.60;99.90;;;4.13;100.00;99194.50;4942304;28;20047;-90
2021/12/27 00:56:05;;;;;;;9.88;6.05;;;5.60;99.90;;;4.19;100.00;99207.25;4941514;29;20052;-90
2021/12/27 00:58:33;;;;;;;9.00;5.60;;;5.60;99.90;;;4.16;100.00;99196.84;4940725;28;20452;-90
2021/12/27 01:01:01;;;;;;;8.60;5.88;;;5.60;99.90;;;4.11;100.00;99194.66;4947802;28;20551;-91
2021/12/27 01:03:28;;;;;;;9.15;5.80;;;5.60;99.90;;;4.16;100.00;99189.59;4940754;28;20055;-91
2021/12/27 01:05:56;;;;;;;10.02;6.28;;;5.60;99.90;;;4.14;100.00;99197.00;4940676;28;20054;-91
2021/12/27 01:08:23;;;;;;;9.90;6.38;;;5.60;99.90;;;4.14;100.00;99193.50;4942720;28;20043;-91
2021/12/27 01:11:02;;;;;;;9.88;6.35;;;5.60;99.90;;;4.20;100.00;99208.94;4924026;28;20051;-90
2021/12/27 01:13:40;;;;;;;10.48;6.50;;;5.60;99.90;;;4.17;100.00;99202.06;4941523;29;20058;-92
2021/12/27 01:16:11;;;;;;;9.48;5.85;;;5.70;99.90;;;4.18;100.00;99197.50;4924073;29;20062;-90
2021/12/27 01:18:47;;;;;;;9.45;6.40;;;5.70;99.90;;;4.22;100.00;99202.34;4922870;29;20430;-90
2021/12/27 01:21:16;;;;;;;9.88;5.68;;;5.70;99.90;;;4.23;100.00;99197.81;4926850;28;20069;-91
2021/12/27 01:23:44;;;;;;;8.63;5.80;;;5.70;99.90;;;4.19;100.00;99193.78;4923788;29;20047;-89
2021/12/27 01:26:14;;;;;;;10.75;6.18;;;5.70;99.90;;;4.24;100.00;99205.69;4941384;28;20051;-91
2021/12/27 01:28:42;;;;;;;9.88;5.85;;;5.70;99.90;;;4.22;100.00;99205.03;4923545;29;20055;-91
2021/12/27 01:31:12;;;;;;;9.73;6.40;;;5.70;99.90;;;4.21;100.00;99197.16;4940714;28;20053;-91
2021/12/27 01:33:44;;;;;;;9.07;6.17;;;5.70;99.90;;;4.24;100.00;99196.78;4940999;28;20642;-91
2021/12/27 01:36:12;;;;;;;9.25;6.03;;;5.70;99.90;;;4.31;100.00;99204.00;4940619;28;20579;-91
2021/12/27 01:38:40;;;;;;;9.82;6.22;;;5.70;99.90;;;4.27;100.00;99202.66;4923715;29;20047;-90
2021/12/27 01:41:11;;;;;;;8.68;5.63;;;5.70;99.90;;;4.29;100.00;99197.94;4941810;28;20047;-90
2021/12/27 01:43:41;;;;;;;9.07;5.70;;;5.70;99.90;;;4.31;100.00;99197.78;4923919;29;20411;-91
2021/12/27 01:46:13;;;;;;;9.65;6.13;;;5.80;99.90;;;4.32;100.00;99199.44;4941650;28;20047;-91
2021/12/27 01:48:45;;;;;;;9.90;6.43;;;5.80;99.90;;;4.29;100.00;99189.03;4941765;28;20055;-91
2021/12/27 01:51:17;;;;;;;9.65;6.13;;;5.80;99.90;;;4.30;100.00;99188.84;4940787;28;20058;-90
2021/12/27 01:53:46;;;;;;;10.93;6.60;;;5.80;99.90;;;4.36;100.00;99187.31;4940652;29;20051;-92
2021/12/27 01:56:17;;;;;;;8.65;5.88;;;5.80;99.90;;;4.34;100.00;99183.97;4940497;28;20044;-90
2021/12/27 01:58:47;;;;;;;9.65;5.90;;;5.80;99.90;;;4.44;100.00;99197.19;4941004;28;20051;-90
2021/12/27 02:01:15;;;;;;;10.93;5.95;;;5.80;99.90;;;4.38;100.00;99181.72;4924160;29;20055;-90
2021/12/27 02:03:44;;;;;;;8.50;5.80;;;5.80;99.90;;;4.43;100.00;99190.13;4940699;28;20098;-90
2021/12/27 02:06:17;;;;;;;8.93;6.15;;;5.90;99.90;;;4.40;100.00;99185.06;4926612;29;20086;-91
2021/12/27 02:08:46;;;;;;;10.23;6.65;;;5.80;99.90;;;4.45;100.00;99188.09;4922977;29;20485;-90
2021/12/27 02:11:17;;;;;;;8.85;5.88;;;5.90;99.90;;;4.40;100.00;99180.56;4940066;28;20054;-90
2021/12/27 02:13:46;;;;;;;9.80;6.13;;;5.90;99.90;;;4.41;100.00;99176.00;4947450;28;20058;-90
2021/12/27 02:16:18;;;;;;;9.05;6.05;;;5.90;99.90;;;4.45;100.00;99188.91;4923066;29;20048;-90
2021/12/27 02:18:50;;;;;;;10.00;5.68;;;5.90;99.90;;;4.42;100.00;99170.44;4940419;29;20051;-90
2021/12/27 02:21:25;;;;;;;8.73;5.55;;;5.90;99.90;;;4.49;100.00;99178.63;4923091;29;20063;-91
2021/12/27 02:23:57;;;;;;;9.27;5.85;;;5.90;99.90;;;4.47;100.00;99175.28;4940385;28;20111;-90
2021/12/27 02:26:24;;;;;;;10.38;6.00;;;5.90;99.90;;;4.45;100.00;99167.38;4923061;28;20477;-91
2021/12/27 02:28:52;;;;;;;7.70;5.20;;;5.90;99.90;;;4.46;100.00;99168.22;4923006;29;20047;-90
2021/12/27 02:31:21;;;;;;;10.05;5.80;;;5.90;99.90;;;4.47;100.00;99169.88;4922463;29;20052;-91
2021/12/27 02:33:49;;;;;;;8.93;5.70;;;5.90;99.90;;;4.50;100.00;99166.84;4946813;28;20055;-91
2021/12/27 02:36:16;;;;;;;9.40;6.03;;;5.90;99.90;;;4.52;100.00;99177.44;4922741;29;20182;-92
2021/12/27 02:38:46;;;;;;;8.70;5.25;;;5.90;99.90;;;4.47;100.00;99162.66;4923845;29;20094;-91
2021/12/27 02:41:14;;;;;;;9.10;5.85;;;5.90;99.90;;;4.52;100.00;99167.50;4923261;29;20044;-91
2021/12/27 02:43:43;;;;;;;8.57;5.25;;;5.90;99.90;;;4.47;100.00;99159.13;4939499;29;20825;-91
2021/12/27 02:46:13;;;;;;;8.75;5.28;;;6.00;99.90;;;4.53;100.00;99163.78;4940391;29;20047;-91
2021/12/27 02:48:48;;;;;;;9.03;5.90;;;5.90;99.90;;;4.59;100.00;99159.53;4923062;28;20086;-90
2021/12/27 02:51:18;;;;;;;9.73;5.93;;;5.90;99.90;;;4.54;100.00;99153.88;4944079;28;20047;-90
2021/12/27 02:53:47;;;;;;;8.80;5.85;;;6.00;99.90;;;4.53;100.00;99153.00;4927189;29;20143;-90
2021/12/27 02:56:17;;;;;;;8.98;5.85;;;6.00;99.90;;;4.56;100.00;99147.25;4943838;28;20109;-91
2021/12/27 02:58:44;;;;;;;9.57;5.95;;;6.00;99.90;;;4.59;100.00;99152.31;4943878;28;20052;-90
2021/12/27 03:01:14;;;;;;;8.77;5.85;;;6.00;99.90;;;4.58;100.00;99152.47;4925225;29;20043;-90
2021/12/27 03:03:42;;;;;;;8.77;5.78;;;6.00;99.90;;;4.62;100.00;99154.63;4926262;29;20047;-91
2021/12/27 03:06:10;;;;;;;9.90;6.03;;;6.00;99.90;;;4.56;100.00;99141.03;4944662;28;20118;-91
2021/12/27 03:08:39;;;;;;;9.35;6.03;;;6.00;99.90;;;4.57;100.00;99137.31;4943430;28;20047;-92
2021/12/27 03:11:11;;;;;;;10.70;6.22;;;6.00;99.90;;;4.58;100.00;99139.84;4943488;28;20047;-91
2021/12/27 03:13:40;;;;;;;10.25;5.68;;;6.00;99.90;;;4.57;100.00;99132.78;4925994;28;20051;-92
2021/12/27 03:16:11;;;;;;;8.35;5.75;;;6.10;99.90;;;4.57;100.00;99132.78;4950419;28;20424;-90
2021/12/27 03:18:42;;;;;;;8.05;5.28;;;6.10;99.90;;;4.60;100.00;99137.78;4957658;28;20435;-91
2021/12/27 03:21:11;;;;;;;8.13;5.70;;;6.10;99.90;;;4.61;100.00;99136.78;4943125;29;20051;-91
2021/12/27 03:23:41;;;;;;;9.95;5.40;;;6.00;99.90;;;4.63;100.00;99131.22;4942543;29;20440;-90
2021/12/27 03:26:13;;;;;;;8.00;5.20;;;6.10;99.90;;;4.67;100.00;99129.84;4942884;28;20047;-91
2021/12/27 03:28:51;;;;;;;7.45;4.95;;;6.10;99.90;;;4.64;100.00;99122.94;4942581;29;20047;-92
2021/12/27 03:31:27;;;;;;;8.50;5.57;;;6.10;99.90;;;4.66;100.00;99131.72;4925212;29;20139;-93
2021/12/27 03:33:56;;;;;;;8.45;5.43;;;6.10;99.90;;;4.70;100.00;99133.03;4942559;28;20039;-91
2021/12/27 03:36:25;;;;;;;8.35;5.53;;;6.10;99.90;;;4.68;100.00;99123.41;4943043;28;20051;-91
2021/12/27 03:38:53;;;;;;;8.35;5.47;;;6.10;99.90;;;4.76;100.00;99138.69;4925449;29;20058;-90
2021/12/27 03:41:25;;;;;;;9.35;5.40;;;6.10;99.90;;;4.76;100.00;99138.69;4925976;29;20364;-91
2021/12/27 03:43:52;;;;;;;8.07;5.75;;;6.20;99.90;;;4.74;100.00;99129.94;4942671;29;20044;-91
2021/12/27 03:46:20;;;;;;;9.55;6.05;;;6.20;99.90;;;4.77;100.00;99126.91;4942907;28;20050;-90
2021/12/27 03:48:47;;;;;;;9.57;6.32;;;6.10;99.90;;;4.73;100.00;99117.50;4942814;28;20053;-90
2021/12/27 03:51:15;;;;;;;9.35;6.15;;;6.20;99.90;;;4.78;100.00;99123.16;4942470;28;20070;-91
2021/12/27 03:53:42;;;;;;;8.75;5.97;;;6.20;99.90;;;4.77;100.00;99126.91;4925409;29;20579;-90
2021/12/27 03:56:10;;;;;;;10.57;5.97;;;6.20;99.90;;;4.78;100.00;99125.88;4941782;29;20489;-92
2021/12/27 03:58:49;;;;;;;8.93;5.85;;;6.20;99.90;;;4.79;100.00;99119.47;4941804;28;20126;-90
2021/12/27 04:01:21;;;;;;;9.70;6.18;;;6.20;99.90;;;4.83;100.00;99132.38;4940912;28;20139;-91
2021/12/27 04:03:54;;;;;;;10.75;6.18;;;6.20;99.90;;;4.80;100.00;99118.47;4942680;28;20739;-90
2021/12/27 04:06:25;;;;;;;8.80;6.15;;;6.20;99.90;;;4.75;100.00;99116.28;4942017;28;20055;-92
2021/12/27 04:08:53;;;;;;;9.40;6.30;;;6.20;99.90;;;4.70;100.00;99116.84;4924756;29;20055;-91
2021/12/27 04:11:20;;;;;;;10.07;6.05;;;6.20;99.90;;;4.73;100.00;99109.41;4944979;28;20495;-90
2021/12/27 04:13:49;;;;;;;8.70;6.05;;;6.20;99.90;;;4.77;100.00;99105.34;4941637;28;20040;-89
2021/12/27 04:16:17;;;;;;;8.93;5.65;;;6.20;99.90;;;4.77;100.00;99108.03;4943038;29;20051;-91
2021/12/27 04:18:44;;;;;;;8.30;5.72;;;6.20;99.90;;;4.85;100.00;99114.16;4942063;28;20350;-91
2021/12/27 04:21:11;;;;;;;9.57;5.70;;;6.20;99.90;;;4.79;100.00;99106.00;4941585;28;20047;-91
2021/12/27 04:23:39;;;;;;;10.23;6.15;;;6.20;99.90;;;4.82;100.00;99114.56;4924599;29;20054;-90
2021/12/27 04:26:07;;;;;;;9.10;5.97;;;6.20;99.90;;;4.84;100.00;99107.13;4941743;29;20148;-91
2021/12/27 04:28:34;;;;;;;8.55;5.40;;;6.20;99.90;;;4.80;100.00;99105.00;4941499;28;20051;-91
2021/12/27 04:31:03;;;;;;;9.35;6.07;;;6.20;99.90;;;4.83;100.00;99110.00;4940833;28;20126;-90
2021/12/27 04:33:31;;;;;;;7.85;5.20;;;6.30;99.90;;;4.90;100.00;99113.66;4941080;29;20051;-91
2021/12/27 04:35:58;;;;;;;7.75;5.35;;;6.30;99.90;;;4.89;100.00;99109.25;4923928;29;20043;-90
2021/12/27 04:38:26;;;;;;;8.63;5.65;;;6.30;99.90;;;4.87;100.00;99105.91;4924358;29;20069;-90
2021/12/27 04:40:56;;;;;;;8.85;5.57;;;6.30;99.90;;;4.87;100.00;99100.50;4942298;29;20035;-91
2021/12/27 04:43:24;;;;;;;8.02;5.38;;;6.30;99.90;;;4.92;100.00;99103.50;4923823;29;20055;-91
2021/12/27 04:45:54;;;;;;;9.15;5.90;;;6.30;99.90;;;4.86;100.00;99085.38;4941652;28;20105;-90
2021/12/27 04:48:25;;;;;;;9.20;6.10;;;6.30;99.90;;;4.87;100.00;99087.03;4940866;28;20059;-91
2021/12/27 04:50:54;;;;;;;8.55;5.68;;;6.30;99.90;;;4.84;100.00;99082.03;4947838;28;20047;-91
2021/12/27 04:53:22;;;;;;;9.00;5.88;;;6.30;99.90;;;4.88;100.00;99080.66;4941515;28;20498;-90
2021/12/27 04:55:49;;;;;;;9.32;6.10;;;6.30;99.90;;;4.83;100.00;99072.25;4923902;29;20054;-90
2021/12/27 04:58:21;;;;;;;9.20;6.20;;;6.30;99.90;;;4.86;100.00;99069.22;4941368;28;20485;-90
2021/12/27 05:00:48;;;;;;;;;;;6.30;99.90;;;4.84;100.00;99076.66;4941587;29;20043;-91
2021/12/27 05:03:16;;;;;;;9.10;5.95;;;6.30;99.90;;;4.78;100.00;99070.13;4940881;28;19930;-91
2021/12/27 05:05:46;;;;;;;9.23;6.20;;;6.30;99.90;;;4.77;100.00;99064.91;4941017;28;20512;-90
2021/12/27 05:08:14;;;;;;;10.45;6.80;;;6.30;99.90;;;4.78;100.00;99070.13;4943485;28;20048;-91
2021/12/27 05:10:42;;;;;;;9.02;5.95;;;6.30;99.90;;;4.81;100.00;99066.22;4923244;29;20051;-90
2021/12/27 05:13:10;;;;;;;8.88;6.28;;;6.20;99.90;;;4.78;100.00;99058.50;4940607;29;20049;-90
2021/12/27 05:15:37;;;;;;;9.55;5.95;;;6.20;99.90;;;4.80;100.00;99072.66;4924072;29;20575;-91
2021/12/27 05:18:04;;;;;;;10.30;6.20;;;6.20;99.90;;;4.75;100.00;99065.09;4941394;28;20115;-91
2021/12/27 05:20:32;;;;;;;10.40;6.75;;;6.20;99.90;;;4.76;100.00;99069.47;4923715;29;20051;-91
2021/12/27 05:23:01;;;;;;;9.07;6.10;;;6.20;99.90;;;4.73;100.00;99060.91;4922697;29;20077;-92
2021/12/27 05:25:28;;;;;;;9.75;6.45;;;6.20;99.90;;;4.76;100.00;99068.63;4941186;28;20061;-90
2021/12/27 05:27:56;;;;;;;9.45;5.57;;;6.20;99.90;;;4.73;100.00;99069.81;4925234;29;20058;-91
2021/12/27 05:30:24;;;;;;;9.68;6.10;;;6.20;99.90;;;4.72;100.00;99064.63;4923226;29;20094;-91
2021/12/27 05:32:51;;;;;;;9.05;6.30;;;6.20;99.90;;;4.75;100.00;99056.19;4922760;29;20071;-91
2021/12/27 05:35:19;;;;;;;9.45;6.20;;;6.20;99.90;;;4.82;100.00;99059.81;4923435;28;20051;-90
2021/12/27 05:37:47;;;;;;;11.07;6.47;;;6.20;99.90;;;4.82;100.00;99054.44;4940450;28;20051;-90
2021/12/27 05:40:22;;;;;;;12.23;6.60;;;6.20;99.90;;;4.86;100.00;99061.13;4924060;29;20095;-91
2021/12/27 05:42:50;;;;;;;9.48;6.40;;;6.20;99.90;;;4.88;100.00;99062.59;4922591;29;20488;-91
2021/12/27 05:45:19;;;;;;;9.90;6.47;;;6.20;99.90;;;4.82;100.00;99044.47;4940616;29;20058;-91
2021/12/27 05:47:47;;;;;;;11.52;5.95;;;6.20;99.90;;;4.92;100.00;99059.56;4940506;28;20047;-91
2021/12/27 05:50:18;;;;;;;10.38;6.28;;;6.20;99.90;;;4.85;100.00;99045.97;4923409;29;20066;-92
2021/12/27 05:52:46;;;;;;;9.00;5.97;;;6.30;99.90;;;4.93;100.00;99050.44;4923344;29;20050;-91
2021/12/27 05:55:15;;;;;;;10.02;6.30;;;6.30;99.90;;;4.90;100.00;99038.16;4923670;29;20067;-89
2021/12/27 05:57:42;;;;;;;9.10;5.82;;;6.30;99.90;;;4.87;100.00;99031.28;4940067;28;20048;-90
2021/12/27 06:00:13;;;;;;;8.98;6.00;;;6.30;99.90;;;4.91;100.00;99042.53;4940654;28;20134;-91
2021/12/27 06:02:41;;;;;;;10.85;6.57;;;6.30;99.90;;;4.94;100.00;99050.25;4940380;28;20062;-90
2021/12/27 06:05:09;;;;;;;9.52;5.68;;;6.30;99.90;;;4.92;100.00;99043.38;4940472;28;20515;-91
2021/12/27 06:07:37;;;;;;;11.50;6.68;;;6.30;99.90;;;4.92;100.00;99038.81;4942315;28;20050;-91
2021/12/27 06:10:06;;;;;;;11.10;7.07;;;6.30;99.90;;;4.87;100.00;99033.13;4941752;28;20408;-92
2021/12/27 06:12:35;;;;;;;10.90;7.05;;;6.30;99.90;;;4.95;100.00;99043.84;4922875;29;20052;-90
2021/12/27 06:15:03;;;;;;;9.63;6.78;;;6.30;99.90;;;4.90;100.00;99022.00;4922930;29;20051;-90
2021/12/27 06:17:32;;;;;;;10.82;6.72;;;6.30;99.90;;;4.95;100.00;99038.47;4966107;23;20057;-83
2021/12/27 06:20:00;;;;;;;9.90;6.43;;;6.30;99.90;;;4.96;100.00;99037.41;4986946;28;20112;-83
2021/12/27 06:22:28;;;;;;;10.60;6.38;;;6.30;99.90;;;4.97;100.00;99036.41;4987567;28;20137;-83
2021/12/27 06:24:55;;;;;;;9.25;6.15;;;6.30;99.90;;;4.98;100.00;99035.38;4990859;28;20134;-84
2021/12/27 06:27:22;;;;;;;9.18;6.13;;;6.30;99.90;;;4.98;100.00;99026.47;4992037;28;20511;-83
2021/12/27 06:29:51;;;;;;;9.05;6.00;;;6.40;99.90;;;4.99;100.00;99036.19;4991910;28;20046;-83
2021/12/27 06:32:18;;;;;;;9.13;6.07;;;6.50;99.90;;;4.98;100.00;99032.69;4992173;28;20085;-83
2021/12/27 06:34:45;;;;;;;8.68;6.03;;;6.40;99.90;;;4.96;100.00;99034.72;4991995;28;20478;-83
2021/12/27 06:37:13;;;;;;;10.18;6.40;;;6.40;99.90;;;4.96;100.00;99039.28;4992011;28;20070;-83
2021/12/27 06:39:40;;;;;;;8.93;6.18;;;6.40;99.90;;;4.96;100.00;99039.28;4991412;28;20878;-83
2021/12/27 06:42:08;;;;;;;9.10;6.13;;;6.40;99.90;;;4.96;100.00;99039.28;4991376;28;20049;-83
2021/12/27 06:44:36;;;;;;;9.00;6.15;;;6.40;99.90;;;4.96;100.00;99037.41;4991257;28;20046;-83
2021/12/27 06:47:06;;;;;;;9.13;5.88;;;6.40;99.90;;;4.98;100.00;99048.84;4991672;28;20132;-83
2021/12/27 06:49:33;;;;;;;8.90;5.88;;;6.40;99.90;;;5.00;100.00;99046.81;4991641;28;20044;-83
2021/12/27 06:52:00;;;;;;;9.00;5.82;;;6.40;99.90;;;5.04;100.00;99045.41;4990852;28;20116;-83
2021/12/27 06:54:28;;;;;;;9.65;6.65;;;6.40;99.90;;;5.05;100.00;99055.19;4991378;28;20403;-83
2021/12/27 06:56:59;;;;;;;9.10;5.60;;;6.40;99.90;;;5.09;100.00;99051.09;4973111;28;20054;-83
2021/12/27 06:59:27;;;;;;;10.77;6.07;;;6.40;99.90;;;5.11;100.00;99044.69;4973589;28;20419;-83
2021/12/27 07:01:55;;;;;;;9.25;5.93;;;6.50;99.90;;;5.11;100.00;99047.38;4990598;28;20046;-83
2021/12/27 07:04:24;;;;;;;10.13;6.32;;;6.50;99.90;;;5.14;100.00;99050.56;4990323;28;20046;-83
2021/12/27 07:06:51;;;;;;;8.52;5.90;;;6.50;99.90;;;5.14;100.00;99037.06;4988124;28;20157;-84
2021/12/27 07:09:18;;;;;;;8.85;5.85;;;6.50;99.90;;;5.18;100.00;99053.69;4971307;28;20048;-84
2021/12/27 07:11:46;;;;;;;9.30;6.10;;;6.50;99.90;;;5.18;100.00;99037.50;4973041;28;20339;-83
2021/12/27 07:14:13;;;;;;;9.57;6.20;;;6.50;99.90;;;5.19;100.00;99031.94;4991234;28;20043;-83
2021/12/27 07:16:40;;;;;;;8.43;5.63;;;6.50;99.90;;;5.21;100.00;99034.44;4990394;28;20078;-83
2021/12/27 07:19:07;;;;;;;8.02;5.78;;;6.60;99.90;;;5.24;100.00;99023.31;4991019;28;20133;-83
2021/12/27 07:21:36;;;;;;;8.75;5.80;;;6.60;99.90;;;5.26;100.00;99029.34;4990576;28;20070;-83
2021/12/27 07:24:04;;;;;;;9.13;5.47;;;6.60;99.90;;;5.27;100.00;99031.00;4990803;28;20038;-86
2021/12/27 07:26:32;;;;;;;9.25;5.13;;;6.60;99.90;;;5.28;100.00;99028.13;4990107;28;20110;-85
2021/12/27 07:28:59;;;;;;;8.95;5.70;;;6.60;99.90;;;5.31;100.00;99026.06;4990789;28;20108;-87
2021/12/27 07:31:27;;;;;;;10.15;6.22;;;6.70;99.90;;;5.33;100.00;99024.88;4989939;28;20046;-88
2021/12/27 07:33:54;;;;;;;8.07;5.50;;;6.70;99.90;;;5.35;100.00;99028.22;4990645;28;20043;-87
2021/12/27 07:36:22;;;;;;;9.70;5.55;;;6.70;99.90;;;5.35;100.00;99022.81;4989915;28;20054;-86
2021/12/27 07:38:51;;;;;;;7.97;5.18;;;6.70;99.90;;;5.35;100.00;99020.13;4990802;28;20149;-85
2021/12/27 07:41:18;;;;;;;11.52;5.85;;;6.80;99.90;;;5.38;100.00;99019.72;4990121;28;20129;-85
2021/12/27 07:43:45;;;;;;;10.07;6.05;;;6.70;99.90;;;5.41;100.00;99022.06;4990812;28;20067;-85
2021/12/27 07:46:13;;;;;;;9.52;5.53;;;6.80;99.90;;;5.43;100.00;99025.41;4990791;28;20129;-85
2021/12/27 07:48:40;;;;;;;10.13;5.88;;;6.80;99.90;;;5.44;100.00;99032.47;4990401;28;20476;-86
2021/12/27 07:51:07;;;;;;;9.25;5.90;;;6.80;99.90;;;5.46;100.00;99035.84;4989531;28;20048;-85
2021/12/27 07:53:35;;;;;;;10.18;5.75;;;6.80;99.90;;;5.49;100.00;99032.75;4989791;28;20078;-84
2021/12/27 07:56:06;;;;;;;9.55;5.50;;;6.90;99.90;;;5.52;100.00;99033.38;4989966;28;20153;-85
2021/12/27 07:58:33;;;;;;;9.48;5.85;;;6.90;99.90;;;5.52;100.00;99028.00;4986844;28;20065;-85
2021/12/27 08:01:04;;;;;;;9.27;6.03;;;6.90;99.90;;;5.53;100.00;99026.97;4989619;28;20158;-86
2021/12/27 08:03:31;;;;;;;11.25;5.90;;;6.90;99.90;;;5.54;100.00;99024.09;4989709;28;20076;-86
2021/12/27 08:05:59;;;;;;;9.20;6.10;;;6.90;99.90;;;5.56;100.00;99026.59;4989830;28;20093;-86
2021/12/27 08:08:26;;;;;;;11.48;6.47;;;6.90;99.90;;;5.58;100.00;99021.84;4989331;28;20394;-85
2021/12/27 08:10:54;;;;;;;10.57;6.50;;;7.00;99.90;;;5.58;100.00;99022.69;4989110;28;20566;-87
2021/12/27 08:13:24;;;;;;;15.15;7.20;;;7.00;99.90;;;5.60;100.00;99014.41;4989576;28;20069;-88
2021/12/27 08:15:52;;;;;;;11.95;6.45;;;7.00;99.90;;;5.62;100.00;99013.19;4989101;28;20100;-91
2021/12/27 08:18:20;;;;;;;10.02;6.20;;;7.00;99.90;;;5.66;100.00;99008.25;4996914;28;20121;-90
2021/12/27 08:20:47;;;;;;;8.82;6.07;;;7.00;99.90;;;5.67;100.00;99018.00;4989414;28;20058;-88
2021/12/27 08:23:15;;;;;;;12.88;6.30;;;7.00;99.90;;;5.71;100.00;99015.75;4972423;28;20062;-91
2021/12/27 08:25:42;;;;;;;10.93;5.70;;;7.10;99.90;;;5.73;100.00;99014.56;4989291;28;20038;-86
2021/12/27 08:28:11;;;;;;;9.75;6.20;;;7.10;99.90;;;5.74;100.00;99010.81;4971087;28;20573;-84
2021/12/27 08:30:40;;;;;;;10.50;6.32;;;7.10;99.90;;;5.79;100.00;99008.41;4987934;28;20043;-87
2021/12/27 08:33:07;;;;;;;9.40;6.22;;;7.10;99.90;;;5.81;100.00;99000.94;4988720;28;20142;-87
2021/12/27 08:35:36;;;;;;;10.65;6.05;;;7.10;99.90;;;5.83;100.00;99004.28;4987884;28;20070;-87
2021/12/27 08:38:04;;;;;;;10.60;6.57;;;7.20;99.90;;;5.88;100.00;99001.00;4987667;28;20089;-87
2021/12/27 08:40:31;;;;;;;10.48;6.10;;;7.20;99.90;;;5.84;100.00;98997.84;4987414;28;20046;-87
2021/12/27 08:42:59;;;;;;;9.73;6.25;;;7.20;99.90;;;5.80;100.00;99010.06;4986550;28;20061;-87
2021/12/27 08:45:27;;;;;;;10.25;6.38;;;7.20;99.90;;;5.78;100.00;98998.63;4989048;28;20073;-87
2021/12/27 08:47:55;;;;;;;9.60;6.22;;;7.20;99.90;;;5.76;100.00;99000.66;4988176;28;20038;-88
2021/12/27 08:50:23;;;;;;;12.38;6.20;;;7.20;99.90;;;5.74;100.00;98997.31;4988591;28;20050;-84
2021/12/27 08:52:50;;;;;;;9.25;6.03;;;7.20;99.90;;;5.74;100.00;99000.03;4986939;28;20737;-85
2021/12/27 08:55:18;;;;;;;9.38;6.20;;;7.20;99.90;;;5.72;100.00;98996.69;4988222;28;20039;-86
2021/12/27 08:57:46;;;;;;;9.70;6.13;;;7.20;99.90;;;5.71;100.00;98995.00;4984364;28;20096;-86
2021/12/27 09:00:16;;;;;;;10.02;5.93;;;7.10;99.90;;;5.69;100.00;98991.66;4987592;28;20042;-86
2021/12/27 09:02:45;;;;;;;11.02;6.43;;;7.10;99.90;;;5.67;100.00;98996.41;4986085;28;20100;-86
2021/12/27 09:05:14;;;;;;;11.73;6.03;;;7.10;99.90;;;5.67;100.00;98993.72;4987179;28;20042;-86
2021/12/27 09:07:41;;;;;;;10.10;6.57;;;7.10;99.90;;;5.66;100.00;99000.16;4987694;28;20061;-85
2021/12/27 09:10:10;;;;;;;9.93;6.13;;;7.10;99.90;;;5.67;100.00;99004.50;4988828;28;20494;-85
2021/12/27 09:12:40;;;;;;;9.80;6.15;;;7.10;99.90;;;5.66;100.00;99002.84;4988602;28;20793;-86
2021/12/27 09:15:08;;;;;;;9.60;6.43;;;7.10;99.90;;;5.65;100.00;98996.63;4988354;28;20066;-89
2021/12/27 09:17:36;;;;;;;9.07;5.93;;;7.10;99.90;;;5.65;100.00;98995.78;4988194;28;20081;-87
2021/12/27 09:20:05;;;;;;;10.70;6.38;;;7.10;99.90;;;5.65;100.00;98996.63;4988675;28;20137;-87
2021/12/27 09:22:36;;;;;;;9.57;6.22;;;7.10;99.90;;;5.71;100.00;99000.41;4988587;28;20042;-88
2021/12/27 09:25:03;;;;;;;9.65;6.20;;;7.10;99.90;;;5.78;100.00;98995.91;4970500;28;20447;-87
2021/12/27 09:27:31;;;;;;;9.30;5.88;;;7.10;99.90;;;5.85;100.00;98996.81;4987987;28;20639;-88
2021/12/27 09:29:58;;;;;;;10.80;6.45;;;7.20;99.90;;;5.92;100.00;99004.16;4988373;28;20521;-88
2021/12/27 09:32:27;;;;;;;7.97;5.35;;;7.20;99.90;;;5.97;100.00;98999.06;4986548;28;20116;-87
2021/12/27 09:34:54;;;;;;;9.40;5.93;;;7.30;99.90;;;6.00;100.00;99001.38;4984771;28;20077;-87
2021/12/27 09:37:22;;;;;;;10.98;5.72;;;7.30;99.90;;;6.03;100.00;98999.09;4988676;28;20109;-86
2021/12/27 09:39:53;;;;;;;9.68;5.55;;;7.30;99.90;;;6.06;100.00;98993.34;4988878;28;20046;-85
2021/12/27 09:42:22;;;;;;;9.25;5.78;;;7.40;99.90;;;6.07;100.00;98992.31;4987656;28;20054;-85
2021/12/27 09:44:50;;;;;;;9.00;5.88;;;7.40;99.90;;;6.06;100.00;98985.22;4987155;28;20537;-83
2021/12/27 09:47:17;;;;;;;10.40;5.35;;;7.50;99.90;;;6.05;100.00;98980.88;4988184;28;20089;-84
2021/12/27 09:49:46;;;;;;;8.65;5.63;;;7.50;99.90;;;6.05;100.00;98980.88;4969989;28;20038;-83
2021/12/27 09:52:14;;;;;;;7.78;4.70;;;7.50;99.90;;;6.06;100.00;98971.72;4987656;28;20038;-83
2021/12/27 09:54:45;;;;;;;7.38;4.80;;;7.50;99.90;;;6.09;100.00;98973.19;4987769;28;20138;-85
2021/12/27 09:57:14;;;;;;;7.35;4.68;;;7.50;99.90;;;6.08;100.00;98976.94;4987600;28;20042;-81
2021/12/27 09:59:41;;;;;;;7.68;4.57;;;7.50;99.90;;;6.09;100.00;98973.19;4991101;28;20147;-84
2021/12/27 10:02:08;;;;;;;8.70;5.43;;;7.50;99.90;;;6.11;100.00;98975.72;4992069;28;20133;-81
2021/12/27 10:04:36;;;;;;;8.27;4.78;;;7.50;99.90;;;6.12;100.00;98980.09;4990964;28;20074;-82
2021/12/27 10:07:04;;;;;;;8.45;4.70;;;7.50;99.90;;;6.15;100.00;98988.66;4976174;28;20074;-82
2021/12/27 10:09:34;;;;;;;8.20;4.60;;;7.60;99.90;;;6.21;100.00;98976.22;4991730;28;20129;-82
2021/12/27 10:12:08;;;;;;;7.87;4.50;;;7.60;99.90;;;6.23;100.00;98975.00;4991764;28;20058;-82
2021/12/27 10:14:36;;;;;;;9.05;4.55;;;7.60;99.90;;;6.29;100.00;98976.09;4972504;28;20069;-82
2021/12/27 10:17:10;;;;;;;10.05;5.40;;;7.70;99.90;;;6.38;100.00;98966.00;4992061;28;20407;-81
2021/12/27 10:19:39;;;;;;;9.93;6.03;;;7.70;99.90;;;6.41;100.00;98963.69;4992265;28;20042;-81
2021/12/27 10:22:12;;;;;;;8.20;4.50;;;7.70;99.90;;;6.45;100.00;98953.34;4991106;28;20042;-82
2021/12/27 10:24:40;;;;;;;10.60;5.07;;;7.80;99.90;;;6.45;100.00;98954.19;4990294;28;20038;-81
2021/12/27 10:27:08;;;;;;;9.35;4.93;;;7.80;99.90;;;6.49;100.00;98949.19;4991305;28;20471;-82
2021/12/27 10:29:40;;;;;;;7.07;4.20;;;7.80;99.90;;;6.53;100.00;98950.50;4992336;28;20057;-81
2021/12/27 10:32:10;;;;;;;7.70;4.35;;;7.90;99.90;;;6.57;100.00;98950.94;4991632;28;20050;-82
2021/12/27 10:34:41;;;;;;;9.27;3.53;;;7.90;99.90;;;6.58;100.00;98948.03;4991067;28;20038;-81